Etusivu
METAR-TAF:

METAR-TAF

Lentoasemat :

Cotulla, Texas, Yhdysvallat

Leveyspiiri: 28-27-30N, Pituuspiiri: 099-13-13W, korkeus merenpinnasta: 145 m

Tämänhetkinen sää

Tämä raportti tehtiin 38 minuuttia sitten, kello 09.53 UTC
Tuuli 5 kn pohjoisesta/koillisesta
Lämpötila 16°C
Kosteus 100%
Ilmanpaine 1018 hPa
Näkyvyys: 11.3 km
selkeää

METAR: KCOT 060953Z AUTO 03005KT 7SM CLR 16/16 A3005 RMK AO2 SLP170 T01610156

Aika: 04:31 (10:31 UTC)

Sääennuste

Tämä raportti tehtiin 5 tuntia ja 2 minuuttia sitten, kello 05.29 UTC
Ennuste voimassa 06. päivästä klo 06 UTC - 07. päivään klo 06 UTC
Tuuli 3 kn eri suunnista
Näkyvyys: 10 km
Hajonneita pilviä 15000 ft:n korkeudessa
From 06. päivästä klo 1400 UTC
Tuuli 10 kn pohjoisesta
Näkyvyys: 10 km
Muutamia pilviä 25000 ft:n korkeudessa

TAF: KCOT 060529Z 0606/0706 VRB03KT P6SM BKN150 FM061400 01010KT P6SM FEW250

Säähavainnot ja -ennusteet yli 4000 lentoasemalta (METAR- ja TAF-raportit).

Käytössä olevat sääasemat on merkitty karttaan keltaisilla ja punaisilla pisteillä.

Aseta hiiri pisteen päälle nähdäksesi sääaseman nimen.

Klikkaa sitten nähdäksesi säähavainnot ja -ennusteet.

Kartan vaihtaminen: klikkaa mustalla rastilla varustettuja vihreitä pisteitä, niin voit zoomata sisään; viivalla varustettua vihreää pistettä, niin voit zoomata ulos tai vihreitä nuolia, niin pääset viereisille kartoille.


METAR-TAF: